createdAt,value
2022-11-29T00:00:28.557Z,0.2
2022-11-29T00:02:59.184Z,0.2
2022-11-29T00:05:40.101Z,0.2
2022-11-29T00:08:10.693Z,0.2
2022-11-29T00:13:11.444Z,0.2
2022-11-29T00:15:42.069Z,0.2
2022-11-29T00:20:52.806Z,0.1
2022-11-29T00:23:23.418Z,0.1
2022-11-29T00:25:54.027Z,0.2
2022-11-29T00:28:24.605Z,0.2
2022-11-29T00:30:55.286Z,0.2
2022-11-29T00:33:36.077Z,0.2
2022-11-29T00:36:06.678Z,0.2
2022-11-29T00:38:37.279Z,0.3
2022-11-29T00:41:07.872Z,0.2
2022-11-29T00:43:38.456Z,0.2
2022-11-29T00:46:09.099Z,0.2
2022-11-29T00:48:49.756Z,0.2
2022-11-29T00:53:50.532Z,0.2
2022-11-29T00:56:21.139Z,0.2
2022-11-29T00:58:51.713Z,0.2
2022-11-29T01:01:22.339Z,0.2
2022-11-29T01:04:03.107Z,0.3
2022-11-29T01:09:03.859Z,0.3
2022-11-29T01:11:44.469Z,0.3
2022-11-29T01:14:15.085Z,0.3
2022-11-29T01:16:55.730Z,0.3
2022-11-29T01:19:26.421Z,0.3
2022-11-29T01:21:51.248Z,0.3
2022-11-29T01:24:21.843Z,0.3
2022-11-29T01:26:53.049Z,0.3
2022-11-29T01:29:23.655Z,0.3
2022-11-29T01:34:34.393Z,0.3
2022-11-29T01:37:05.344Z,0.3
2022-11-29T01:39:35.968Z,0.2
2022-11-29T01:42:06.588Z,0.2
2022-11-29T01:44:37.188Z,0.3
2022-11-29T01:47:17.860Z,0.2
2022-11-29T01:49:48.463Z,0.2
2022-11-29T01:52:19.066Z,0.2
2022-11-29T01:54:49.665Z,0.3
2022-11-29T01:57:20.397Z,0.2
2022-11-29T01:59:51.257Z,0.3
2022-11-29T02:02:31.906Z,0.2
2022-11-29T02:05:02.690Z,0.2
2022-11-29T02:07:33.330Z,0.2
2022-11-29T02:10:04.085Z,0.3
2022-11-29T02:15:04.834Z,0.3
2022-11-29T02:17:45.423Z,0.3
2022-11-29T02:20:16.036Z,0.3
2022-11-29T02:22:56.621Z,0.3
2022-11-29T02:25:27.231Z,0.3
2022-11-29T02:27:57.821Z,0.3
2022-11-29T02:30:28.437Z,0.2
2022-11-29T02:33:09.272Z,0.2
2022-11-29T02:35:39.852Z,0.2
2022-11-29T02:38:10.455Z,0.3
2022-11-29T02:40:41.087Z,0.3
2022-11-29T02:43:11.702Z,0.3
2022-11-29T02:45:52.335Z,0.3
2022-11-29T02:48:23.185Z,0.2
2022-11-29T02:50:53.796Z,0.3
2022-11-29T02:55:54.550Z,0.2
2022-11-29T02:58:25.144Z,0.3
2022-11-29T03:03:35.918Z,0.2
2022-11-29T03:06:06.527Z,0.3
2022-11-29T03:08:37.121Z,0.3
2022-11-29T03:11:07.769Z,0.3
2022-11-29T03:13:38.365Z,0.3
2022-11-29T03:16:18.991Z,0.3
2022-11-29T03:18:53.603Z,0.3
2022-11-29T03:21:24.198Z,0.3
2022-11-29T03:23:54.778Z,0.3
2022-11-29T03:26:25.387Z,0.3
2022-11-29T03:28:56.011Z,0.3
2022-11-29T03:31:36.629Z,0.3
2022-11-29T03:36:37.352Z,0.3
2022-11-29T03:39:07.957Z,0.3
2022-11-29T03:41:38.546Z,0.3
2022-11-29T03:44:19.154Z,0.4
2022-11-29T03:46:49.760Z,0.3
2022-11-29T03:49:20.358Z,0.3
2022-11-29T03:51:50.975Z,0.3
2022-11-29T03:54:21.560Z,0.3
2022-11-29T03:56:52.332Z,0.4
2022-11-29T03:59:32.947Z,0.4
2022-11-29T04:02:03.538Z,0.4
2022-11-29T04:04:34.328Z,0.4
2022-11-29T04:07:05.366Z,0.3
2022-11-29T04:09:36.064Z,0.4
2022-11-29T04:12:06.651Z,0.4
2022-11-29T04:17:17.423Z,0.4
2022-11-29T04:19:47.996Z,0.4
2022-11-29T04:22:18.640Z,0.4
2022-11-29T04:24:49.233Z,0.4
2022-11-29T04:27:19.839Z,0.3
2022-11-29T04:30:00.461Z,0.3
2022-11-29T04:32:31.058Z,0.4
2022-11-29T04:35:01.644Z,0.4
2022-11-29T04:37:32.246Z,0.3
2022-11-29T04:40:02.830Z,0.3
2022-11-29T04:42:33.431Z,0.3
2022-11-29T04:45:14.034Z,0.4
2022-11-29T04:47:44.612Z,0.3
2022-11-29T04:50:15.237Z,0.3
2022-11-29T04:52:45.834Z,0.4
2022-11-29T04:57:56.563Z,0.3
2022-11-29T05:00:27.180Z,0.3
2022-11-29T05:02:57.816Z,0.3
2022-11-29T05:05:28.478Z,0.3
2022-11-29T05:07:59.117Z,0.3
2022-11-29T05:10:29.735Z,0.3
2022-11-29T05:13:10.347Z,0.3
2022-11-29T05:15:41.038Z,0.3
2022-11-29T05:18:11.795Z,0.3
2022-11-29T05:20:42.381Z,0.3
2022-11-29T05:23:12.969Z,0.3
2022-11-29T05:25:43.586Z,0.3
2022-11-29T05:28:24.204Z,0.3
2022-11-29T05:30:54.854Z,0.3
2022-11-29T05:33:25.688Z,0.4
2022-11-29T05:38:26.424Z,0.3
2022-11-29T05:40:57.102Z,0.3
2022-11-29T05:43:47.699Z,0.3
2022-11-29T05:46:18.308Z,0.3
2022-11-29T05:48:49.009Z,0.3
2022-11-29T05:51:19.626Z,0.3
2022-11-29T05:53:50.226Z,0.3
2022-11-29T05:56:30.863Z,0.3
2022-11-29T05:59:01.455Z,0.4
2022-11-29T06:01:32.168Z,0.3
2022-11-29T06:04:03.021Z,0.3
2022-11-29T06:06:25.612Z,0.4
2022-11-29T06:08:56.201Z,0.3
2022-11-29T06:11:36.807Z,0.3
2022-11-29T06:14:07.413Z,0.3
2022-11-29T06:19:18.174Z,0.4
2022-11-29T06:21:48.782Z,0.3
2022-11-29T06:24:23.418Z,0.4
2022-11-29T06:26:56.725Z,0.3
2022-11-29T06:29:27.380Z,0.4
2022-11-29T06:31:57.990Z,0.4
2022-11-29T06:34:30.809Z,0.4
2022-11-29T06:37:01.621Z,0.4
2022-11-29T06:39:32.236Z,0.3
2022-11-29T06:42:12.854Z,0.4
2022-11-29T06:44:43.680Z,0.4
2022-11-29T06:47:14.535Z,0.4
2022-11-29T06:49:45.144Z,0.4
2022-11-29T06:52:15.750Z,0.4
2022-11-29T06:54:46.778Z,0.5
2022-11-29T06:59:57.781Z,0.5
2022-11-29T07:02:28.445Z,0.5
2022-11-29T07:04:59.077Z,0.4
2022-11-29T07:07:29.657Z,0.4
2022-11-29T07:10:14.699Z,0.5
2022-11-29T07:12:35.472Z,0.5
2022-11-29T07:15:06.078Z,0.5
2022-11-29T07:17:46.697Z,0.5
2022-11-29T07:20:17.264Z,0.5
2022-11-29T07:22:47.843Z,0.5
2022-11-29T07:25:28.472Z,0.5
2022-11-29T07:27:59.074Z,0.5
2022-11-29T07:30:29.668Z,0.5
2022-11-29T07:33:00.699Z,0.4
2022-11-29T07:35:31.447Z,0.5
2022-11-29T07:40:42.256Z,0.6
2022-11-29T07:43:12.847Z,0.5
2022-11-29T07:45:43.436Z,0.6
2022-11-29T07:48:14.006Z,0.6
2022-11-29T07:50:44.622Z,0.6
2022-11-29T07:53:15.235Z,0.6
2022-11-29T07:55:55.825Z,0.6
2022-11-29T07:58:26.449Z,0.5
2022-11-29T08:00:57.215Z,0.5
2022-11-29T08:03:27.940Z,0.6
2022-11-29T08:05:58.536Z,0.7
2022-11-29T08:08:29.114Z,0.7
2022-11-29T08:11:04.638Z,0.7
2022-11-29T08:13:35.243Z,0.7
2022-11-29T08:16:05.899Z,0.7
2022-11-29T08:21:06.871Z,0.7
2022-11-29T08:23:37.461Z,0.7
2022-11-29T08:26:31.361Z,0.7
2022-11-29T08:28:52.248Z,0.7
2022-11-29T08:31:22.872Z,0.7
2022-11-29T08:33:53.572Z,0.7
2022-11-29T08:36:24.184Z,0.7
2022-11-29T08:41:34.951Z,0.7
2022-11-29T08:44:05.547Z,0.7
2022-11-29T08:46:36.143Z,0.7
2022-11-29T08:49:06.711Z,0.7
2022-11-29T08:51:37.333Z,0.8
2022-11-29T08:54:17.934Z,0.8
2022-11-29T08:57:37.762Z,0.7
2022-11-29T09:01:49.361Z,0.7
2022-11-29T09:04:20.095Z,0.8
2022-11-29T09:06:50.705Z,0.8
2022-11-29T09:09:41.312Z,0.9
2022-11-29T09:12:11.917Z,0.9
2022-11-29T09:14:42.712Z,0.9
2022-11-29T09:17:13.519Z,0.8
2022-11-29T09:19:44.138Z,0.9
2022-11-29T09:22:14.733Z,0.9
2022-11-29T09:24:55.362Z,0.9
2022-11-29T09:27:25.947Z,1.0
2022-11-29T09:29:56.545Z,0.9
2022-11-29T09:32:23.589Z,1.0
2022-11-29T09:34:54.174Z,1.0
2022-11-29T09:37:24.781Z,1.0
2022-11-29T09:42:35.544Z,1.0
2022-11-29T09:45:06.155Z,1.1
2022-11-29T09:47:36.755Z,1.1
2022-11-29T09:50:07.518Z,1.1
2022-11-29T09:52:48.138Z,1.1
2022-11-29T09:55:18.750Z,1.1
2022-11-29T09:57:49.331Z,1.2
2022-11-29T10:00:20.016Z,1.1
2022-11-29T10:02:50.765Z,1.1
2022-11-29T10:05:21.437Z,1.2
2022-11-29T10:08:02.062Z,1.2
2022-11-29T10:10:32.672Z,1.3
2022-11-29T10:13:03.275Z,1.3
2022-11-29T10:15:33.897Z,1.4
2022-11-29T10:18:04.494Z,1.3
2022-11-29T10:23:15.250Z,1.3
2022-11-29T10:25:45.867Z,1.3
2022-11-29T10:28:16.471Z,1.4
2022-11-29T10:30:47.152Z,1.5
2022-11-29T10:33:17.858Z,1.5
2022-11-29T10:35:48.453Z,1.5
2022-11-29T10:38:31.059Z,1.5
2022-11-29T10:41:01.869Z,1.5
2022-11-29T10:43:32.444Z,1.5
2022-11-29T10:46:03.057Z,1.5
2022-11-29T10:48:33.842Z,1.5
2022-11-29T10:51:14.460Z,1.6
2022-11-29T10:53:45.074Z,1.5
2022-11-29T10:56:15.691Z,1.6
2022-11-29T10:58:46.281Z,1.5
2022-11-29T11:03:51.483Z,1.5
2022-11-29T11:06:33.236Z,1.5
2022-11-29T11:09:03.822Z,1.5
2022-11-29T11:11:34.513Z,1.5
2022-11-29T11:14:05.138Z,1.6
2022-11-29T11:16:37.513Z,1.6
2022-11-29T11:19:08.428Z,1.6
2022-11-29T11:21:49.025Z,1.5
2022-11-29T11:24:19.622Z,1.6
2022-11-29T11:26:50.245Z,1.7
2022-11-29T11:29:20.977Z,1.8
2022-11-29T11:31:51.600Z,1.8
2022-11-29T11:34:22.225Z,1.8
2022-11-29T11:37:03.117Z,1.8
2022-11-29T11:39:33.719Z,1.8
2022-11-29T11:44:47.161Z,1.8
2022-11-29T11:47:07.912Z,1.8
2022-11-29T11:49:48.587Z,1.8
2022-11-29T11:52:19.195Z,1.7
2022-11-29T11:54:41.584Z,1.7
2022-11-29T11:57:12.200Z,1.6
2022-11-29T11:59:52.781Z,1.7
2022-11-29T12:02:14.888Z,1.7
2022-11-29T12:04:55.902Z,1.9
2022-11-29T12:07:45.398Z,1.8
2022-11-29T12:10:00.395Z,1.8
2022-11-29T12:12:30.992Z,1.8
2022-11-29T12:15:01.610Z,1.9
2022-11-29T12:17:32.223Z,1.7
2022-11-29T12:20:12.937Z,1.8
2022-11-29T12:25:13.711Z,1.9
2022-11-29T12:27:44.352Z,1.9
2022-11-29T12:30:14.962Z,2.0
2022-11-29T12:32:45.545Z,1.9
2022-11-29T12:35:26.171Z,1.9
2022-11-29T12:37:56.789Z,1.9
2022-11-29T12:40:27.389Z,1.9
2022-11-29T12:42:57.978Z,1.9
2022-11-29T12:45:28.556Z,1.9
2022-11-29T12:48:09.152Z,1.9
2022-11-29T12:50:39.769Z,1.9
2022-11-29T12:53:11.055Z,1.9
2022-11-29T12:55:47.497Z,1.9
2022-11-29T12:58:18.072Z,1.9
2022-11-29T13:00:44.557Z,1.9
2022-11-29T13:05:55.362Z,1.9
2022-11-29T13:08:25.975Z,1.9
2022-11-29T13:10:56.577Z,1.9
2022-11-29T13:13:27.172Z,1.9
2022-11-29T13:15:57.809Z,1.9
